createdAt,value
2022-09-22T00:00:32.918Z,10.63
2022-09-22T00:02:04.552Z,12.26
2022-09-22T00:03:36.086Z,9.59
2022-09-22T00:05:07.458Z,10.29
2022-09-22T00:06:39.134Z,10.18
2022-09-22T00:08:10.795Z,12.99
2022-09-22T00:09:42.308Z,12.03
2022-09-22T00:11:13.550Z,10.10
2022-09-22T00:12:45.179Z,8.69
2022-09-22T00:14:16.784Z,9.94
2022-09-22T00:15:48.112Z,10.30
2022-09-22T00:17:19.931Z,9.80
2022-09-22T00:18:51.131Z,8.91
2022-09-22T00:20:22.751Z,9.69
2022-09-22T00:21:54.162Z,11.88
2022-09-22T00:23:25.972Z,11.36
2022-09-22T00:24:57.182Z,11.87
2022-09-22T00:26:29.294Z,10.57
2022-09-22T00:28:00.694Z,11.68
2022-09-22T00:29:32.325Z,10.51
2022-09-22T00:31:03.659Z,12.45
2022-09-22T00:32:35.048Z,10.01
2022-09-22T00:34:06.464Z,10.39
2022-09-22T00:35:37.890Z,9.95
2022-09-22T00:37:09.424Z,8.79
2022-09-22T00:38:40.796Z,10.88
2022-09-22T00:40:12.161Z,11.12
2022-09-22T00:41:43.494Z,9.45
2022-09-22T00:43:14.925Z,9.04
2022-09-22T00:44:46.203Z,9.44
2022-09-22T00:46:17.475Z,13.26
2022-09-22T00:47:48.937Z,9.07
2022-09-22T00:49:20.142Z,11.09
2022-09-22T00:50:51.660Z,10.80
2022-09-22T00:52:23.121Z,9.44
2022-09-22T00:53:54.713Z,10.64
2022-09-22T00:55:25.995Z,10.48
2022-09-22T00:56:57.526Z,13.11
2022-09-22T00:58:28.951Z,10.77
2022-09-22T01:00:00.684Z,9.93
2022-09-22T01:01:32.196Z,9.21
2022-09-22T01:03:03.625Z,7.49
2022-09-22T01:04:39.945Z,8.77
2022-09-22T01:06:11.839Z,11.50
2022-09-22T01:07:43.086Z,10.31
2022-09-22T01:09:14.388Z,10.23
2022-09-22T01:10:45.998Z,10.42
2022-09-22T01:12:17.510Z,8.74
2022-09-22T01:13:49.101Z,7.40
2022-09-22T01:15:20.910Z,9.42
2022-09-22T01:16:52.212Z,9.81
2022-09-22T01:18:23.991Z,10.58
2022-09-22T01:19:55.751Z,9.67
2022-09-22T01:21:27.140Z,8.89
2022-09-22T01:22:58.931Z,8.83
2022-09-22T01:24:30.373Z,9.71
2022-09-22T01:26:01.717Z,12.15
2022-09-22T01:27:33.339Z,9.08
2022-09-22T01:29:04.695Z,8.95
2022-09-22T01:30:36.480Z,9.46
2022-09-22T01:32:07.829Z,8.52
2022-09-22T01:33:39.268Z,8.48
2022-09-22T01:35:10.918Z,7.70
2022-09-22T01:36:42.258Z,9.21
2022-09-22T01:38:13.418Z,8.64
2022-09-22T01:39:45.022Z,9.58
2022-09-22T01:41:16.585Z,10.70
2022-09-22T01:42:48.444Z,10.03
2022-09-22T01:44:20.131Z,8.92
2022-09-22T01:45:51.552Z,10.46
2022-09-22T01:47:22.830Z,10.13
2022-09-22T01:48:54.047Z,8.41
2022-09-22T01:50:25.436Z,8.30
2022-09-22T01:51:56.933Z,8.65
2022-09-22T01:53:28.520Z,10.26
2022-09-22T01:54:59.928Z,9.12
2022-09-22T01:56:31.330Z,9.99
2022-09-22T01:58:02.821Z,7.86
2022-09-22T01:59:34.023Z,8.50
2022-09-22T02:01:05.511Z,9.36
2022-09-22T02:02:36.834Z,9.92
2022-09-22T02:04:08.328Z,9.35
2022-09-22T02:05:39.762Z,9.05
2022-09-22T02:07:11.301Z,10.29
2022-09-22T02:08:42.983Z,8.84
2022-09-22T02:10:14.434Z,9.20
2022-09-22T02:11:45.862Z,7.95
2022-09-22T02:13:17.468Z,9.54
2022-09-22T02:14:48.880Z,10.91
2022-09-22T02:16:20.450Z,9.50
2022-09-22T02:17:51.674Z,10.96
2022-09-22T02:19:22.990Z,9.05
2022-09-22T02:20:54.408Z,11.00
2022-09-22T02:22:25.803Z,8.41
2022-09-22T02:23:57.295Z,8.70
2022-09-22T02:25:28.687Z,10.04
2022-09-22T02:26:59.890Z,8.30
2022-09-22T02:28:31.266Z,9.21
2022-09-22T02:30:02.610Z,10.88
2022-09-22T02:31:33.908Z,12.70
2022-09-22T02:33:05.677Z,8.93
2022-09-22T02:34:37.175Z,10.40
2022-09-22T02:36:08.831Z,8.42
2022-09-22T02:37:40.111Z,8.46
2022-09-22T02:39:11.590Z,9.89
2022-09-22T02:40:43.278Z,8.16
2022-09-22T02:42:14.591Z,9.20
2022-09-22T02:43:45.989Z,9.81
2022-09-22T02:45:17.657Z,10.14
2022-09-22T02:46:49.140Z,8.27
2022-09-22T02:48:20.701Z,9.58
2022-09-22T02:49:52.047Z,9.69
2022-09-22T02:51:23.824Z,10.35
2022-09-22T02:52:55.222Z,10.47
2022-09-22T02:54:26.772Z,8.99
2022-09-22T02:55:58.238Z,11.40
2022-09-22T02:57:29.682Z,11.95
2022-09-22T02:59:01.065Z,12.70
2022-09-22T03:00:32.512Z,14.15
2022-09-22T03:02:03.863Z,12.27
2022-09-22T03:03:35.609Z,9.27
2022-09-22T03:05:06.963Z,10.39
2022-09-22T03:06:38.566Z,9.19
2022-09-22T03:08:10.459Z,11.93
2022-09-22T03:09:41.933Z,10.55
2022-09-22T03:11:13.503Z,10.45
2022-09-22T03:13:09.082Z,10.30
2022-09-22T03:14:46.699Z,10.73
2022-09-22T03:16:18.007Z,9.15
2022-09-22T03:17:49.331Z,10.89
2022-09-22T03:19:20.993Z,11.22
2022-09-22T03:20:52.320Z,11.93
2022-09-22T03:22:23.606Z,10.22
2022-09-22T03:23:55.076Z,10.64
2022-09-22T03:25:26.584Z,10.94
2022-09-22T03:26:58.017Z,10.36
2022-09-22T03:28:29.288Z,10.37
2022-09-22T03:30:00.569Z,10.89
2022-09-22T03:31:31.786Z,9.87
2022-09-22T03:33:03.034Z,7.94
2022-09-22T03:34:34.562Z,10.09
2022-09-22T03:36:06.111Z,8.44
2022-09-22T03:37:37.436Z,9.79
2022-09-22T03:39:08.751Z,12.33
2022-09-22T03:40:40.230Z,8.82
2022-09-22T03:42:11.610Z,6.88
2022-09-22T03:43:42.931Z,8.24
2022-09-22T03:45:14.378Z,10.08
2022-09-22T03:46:45.861Z,9.03
2022-09-22T03:48:17.229Z,9.10
2022-09-22T03:49:48.619Z,8.44
2022-09-22T03:51:20.041Z,10.84
2022-09-22T03:52:51.282Z,9.80
2022-09-22T03:54:22.503Z,8.94
2022-09-22T03:55:54.094Z,9.22
2022-09-22T03:57:25.443Z,11.34
2022-09-22T03:58:56.792Z,12.76
2022-09-22T04:00:28.161Z,10.19
2022-09-22T04:01:59.462Z,10.07
2022-09-22T04:03:31.105Z,9.89
2022-09-22T04:05:02.694Z,10.59
2022-09-22T04:06:35.124Z,10.30
2022-09-22T04:08:06.863Z,8.07
2022-09-22T04:09:38.255Z,8.82
2022-09-22T04:11:09.781Z,10.61
2022-09-22T04:12:41.294Z,9.61
2022-09-22T04:14:12.874Z,11.94
2022-09-22T04:15:44.481Z,9.76
2022-09-22T04:17:15.747Z,8.76
2022-09-22T04:18:47.152Z,8.54
2022-09-22T04:20:18.462Z,8.82
2022-09-22T04:21:56.140Z,9.41
2022-09-22T04:23:28.864Z,10.17
2022-09-22T04:25:00.179Z,10.70
2022-09-22T04:26:31.608Z,9.36
2022-09-22T04:28:05.561Z,10.02
2022-09-22T04:29:37.405Z,8.80
2022-09-22T04:31:08.841Z,10.69
2022-09-22T04:32:40.292Z,8.31
2022-09-22T04:34:11.558Z,10.37
2022-09-22T04:35:43.117Z,10.47
2022-09-22T04:37:14.728Z,12.64
2022-09-22T04:38:46.023Z,9.37
2022-09-22T04:40:17.354Z,9.30
2022-09-22T04:41:48.696Z,9.01
2022-09-22T04:43:20.175Z,9.37
2022-09-22T04:44:51.611Z,11.02
2022-09-22T04:46:23.005Z,12.61
2022-09-22T04:47:54.432Z,10.02
2022-09-22T04:49:26.010Z,10.23
2022-09-22T04:50:57.675Z,10.13
2022-09-22T04:52:29.121Z,10.21
2022-09-22T04:54:00.545Z,11.56
2022-09-22T04:55:31.991Z,10.82
2022-09-22T04:57:03.366Z,10.16
2022-09-22T04:58:35.055Z,9.35
2022-09-22T05:00:06.516Z,11.73
2022-09-22T05:01:37.941Z,10.66
2022-09-22T05:03:09.403Z,9.47
2022-09-22T05:04:40.833Z,10.73
2022-09-22T05:06:12.289Z,11.07
2022-09-22T05:07:43.492Z,10.54
2022-09-22T05:09:15.006Z,10.81
2022-09-22T05:10:46.341Z,12.47
2022-09-22T05:12:17.875Z,11.95
2022-09-22T05:13:49.066Z,10.69
2022-09-22T05:15:20.358Z,12.66
2022-09-22T05:16:51.863Z,10.96
2022-09-22T05:18:23.351Z,12.68
2022-09-22T05:19:54.576Z,10.67
2022-09-22T05:21:26.345Z,12.32
2022-09-22T05:22:58.101Z,13.85
2022-09-22T05:24:29.306Z,12.42
2022-09-22T05:26:00.587Z,11.31
2022-09-22T05:27:31.847Z,10.75
2022-09-22T05:29:03.354Z,10.90
2022-09-22T05:31:07.407Z,12.26
2022-09-22T05:32:38.688Z,10.39
2022-09-22T05:34:09.921Z,10.52
2022-09-22T05:35:41.642Z,12.04
2022-09-22T05:37:13.083Z,12.15
2022-09-22T05:38:44.379Z,11.33
2022-09-22T05:40:15.812Z,12.76
2022-09-22T05:41:47.439Z,10.81
2022-09-22T05:43:18.915Z,11.29
2022-09-22T05:44:50.424Z,9.82
2022-09-22T05:46:21.833Z,10.00
2022-09-22T05:47:53.158Z,10.55
2022-09-22T05:49:24.511Z,11.29
2022-09-22T05:50:56.091Z,10.28
2022-09-22T05:52:27.542Z,11.61
2022-09-22T05:53:59.093Z,11.61
2022-09-22T05:55:30.404Z,12.16
2022-09-22T05:57:01.736Z,10.76
2022-09-22T05:58:32.976Z,9.90
2022-09-22T06:00:04.261Z,9.62
2022-09-22T06:01:35.774Z,10.64
2022-09-22T06:03:07.259Z,10.53
2022-09-22T06:04:44.151Z,12.01
2022-09-22T06:06:18.174Z,13.21
2022-09-22T06:07:49.720Z,12.01
2022-09-22T06:09:21.616Z,11.59
2022-09-22T06:10:53.024Z,11.24
2022-09-22T06:12:24.496Z,11.20
2022-09-22T06:14:05.824Z,10.56
2022-09-22T06:15:37.064Z,8.94
2022-09-22T06:17:09.083Z,9.47
2022-09-22T06:18:41.014Z,10.86
2022-09-22T06:20:12.944Z,8.01
2022-09-22T06:21:44.617Z,10.68
2022-09-22T06:23:15.991Z,11.02
2022-09-22T06:24:47.578Z,9.67
2022-09-22T06:26:18.965Z,12.14
2022-09-22T06:27:50.419Z,10.32
2022-09-22T06:29:27.026Z,9.24
2022-09-22T06:30:58.577Z,10.39
2022-09-22T06:32:35.034Z,10.18
2022-09-22T06:34:07.713Z,9.19
2022-09-22T06:35:39.377Z,10.57
2022-09-22T06:37:10.646Z,11.87
2022-09-22T06:38:42.356Z,11.76
2022-09-22T06:40:17.331Z,12.28
2022-09-22T06:41:49.045Z,12.31
2022-09-22T06:43:20.664Z,11.81
2022-09-22T06:44:52.078Z,12.28
2022-09-22T06:46:23.693Z,11.36
2022-09-22T06:47:55.112Z,11.45
2022-09-22T06:49:26.417Z,9.31
2022-09-22T06:50:57.900Z,9.70
2022-09-22T06:52:39.309Z,11.20
2022-09-22T06:54:11.080Z,10.42
2022-09-22T06:55:42.825Z,9.57
2022-09-22T06:57:24.401Z,9.45
2022-09-22T06:59:09.871Z,10.28
2022-09-22T07:00:49.932Z,9.18
2022-09-22T07:02:21.455Z,9.20
2022-09-22T07:05:57.773Z,10.40
2022-09-22T07:07:30.304Z,11.59
2022-09-22T07:09:01.971Z,10.46
2022-09-22T07:10:33.575Z,9.48
2022-09-22T07:12:05.269Z,10.21
2022-09-22T07:13:41.809Z,10.71
2022-09-22T07:15:12.975Z,12.30
2022-09-22T07:16:44.287Z,8.81
2022-09-22T07:18:15.899Z,9.97
2022-09-22T07:19:48.405Z,9.38
2022-09-22T07:21:19.748Z,11.20
2022-09-22T07:22:51.163Z,7.75
2022-09-22T07:24:22.470Z,8.04
2022-09-22T07:25:53.910Z,9.70
2022-09-22T07:27:25.343Z,9.84
2022-09-22T07:28:56.837Z,8.77
2022-09-22T07:30:28.556Z,9.05
2022-09-22T07:32:00.608Z,9.96
2022-09-22T07:33:32.098Z,9.54
2022-09-22T07:35:03.575Z,11.21
2022-09-22T07:36:35.414Z,9.94
2022-09-22T07:38:06.833Z,8.47
2022-09-22T07:39:38.515Z,12.97
2022-09-22T07:41:10.572Z,10.49
2022-09-22T07:42:42.491Z,16.27
2022-09-22T07:44:14.207Z,11.20
2022-09-22T07:45:45.621Z,10.13
2022-09-22T07:47:17.085Z,9.04
2022-09-22T07:48:48.621Z,11.21
2022-09-22T07:50:20.530Z,10.25
2022-09-22T07:51:52.121Z,8.30
2022-09-22T07:53:23.441Z,8.30
2022-09-22T07:54:54.827Z,7.64
2022-09-22T07:56:26.102Z,9.19
2022-09-22T07:57:57.718Z,7.40
2022-09-22T07:59:34.047Z,8.60
2022-09-22T08:01:05.521Z,9.37
2022-09-22T08:02:37.169Z,9.77
2022-09-22T08:04:08.497Z,8.05
2022-09-22T08:05:39.901Z,8.25
2022-09-22T08:07:11.554Z,10.37
2022-09-22T08:08:48.922Z,7.43
2022-09-22T08:10:20.600Z,6.83
2022-09-22T08:11:52.219Z,8.19
2022-09-22T08:13:28.474Z,7.87
2022-09-22T08:14:59.896Z,7.59
2022-09-22T08:16:31.338Z,7.48
2022-09-22T08:18:08.773Z,7.41
2022-09-22T08:19:40.668Z,8.13
2022-09-22T08:21:12.124Z,6.77
2022-09-22T08:22:44.808Z,7.07
2022-09-22T08:24:21.276Z,6.50
2022-09-22T08:25:52.851Z,6.21
2022-09-22T08:27:25.085Z,5.85
2022-09-22T08:28:56.824Z,5.64
2022-09-22T08:30:33.439Z,5.22
2022-09-22T08:32:04.828Z,7.53
2022-09-22T08:33:36.205Z,6.32
2022-09-22T08:35:07.492Z,7.09
2022-09-22T08:36:39.372Z,6.02
2022-09-22T08:38:12.959Z,4.77
2022-09-22T08:39:44.372Z,4.50
2022-09-22T08:41:16.089Z,6.70
2022-09-22T08:42:47.696Z,5.29
2022-09-22T08:44:18.968Z,6.92
2022-09-22T08:45:55.453Z,5.96
2022-09-22T08:47:28.083Z,5.84
2022-09-22T08:49:00.296Z,6.91
2022-09-22T08:50:34.020Z,5.97
2022-09-22T08:52:11.325Z,5.19
2022-09-22T08:53:42.829Z,5.25
2022-09-22T08:55:14.210Z,5.19
2022-09-22T08:56:45.630Z,8.24
2022-09-22T08:58:17.301Z,7.35
2022-09-22T08:59:48.975Z,6.11
2022-09-22T09:01:20.307Z,6.25
2022-09-22T09:02:52.029Z,6.14
2022-09-22T09:04:23.542Z,5.51
2022-09-22T09:05:54.932Z,4.88
2022-09-22T09:07:26.715Z,3.58
2022-09-22T09:09:01.379Z,4.74
2022-09-22T09:10:36.234Z,4.74
2022-09-22T09:12:08.559Z,5.87
2022-09-22T09:13:45.054Z,3.84
2022-09-22T09:15:16.725Z,5.68
2022-09-22T09:16:48.512Z,4.70
2022-09-22T09:18:20.086Z,4.23
2022-09-22T09:19:52.022Z,4.30
2022-09-22T09:21:23.513Z,5.35
2022-09-22T09:22:54.914Z,6.55
2022-09-22T09:26:28.668Z,5.74
2022-09-22T09:27:59.991Z,6.23
2022-09-22T09:29:31.600Z,6.44
2022-09-22T09:31:02.924Z,4.87
2022-09-22T09:32:34.254Z,4.17
2022-09-22T09:34:05.766Z,3.87
2022-09-22T09:35:41.189Z,3.65
2022-09-22T09:37:13.484Z,4.67
2022-09-22T09:38:44.899Z,3.51
2022-09-22T09:40:16.464Z,5.75
2022-09-22T09:41:48.132Z,4.22
2022-09-22T09:43:20.544Z,4.14
2022-09-22T09:44:52.070Z,5.16
2022-09-22T09:46:23.619Z,3.58
2022-09-22T09:47:59.182Z,3.87
2022-09-22T09:49:30.742Z,3.74
2022-09-22T09:51:02.103Z,4.17
2022-09-22T09:52:33.508Z,4.62
2022-09-22T09:54:05.049Z,3.21
2022-09-22T09:55:36.598Z,3.67
2022-09-22T09:57:08.567Z,7.20
2022-09-22T09:58:40.372Z,4.12
2022-09-22T10:00:11.835Z,4.03
2022-09-22T10:01:44.362Z,2.80
2022-09-22T10:03:15.885Z,2.68
2022-09-22T10:04:47.531Z,3.02
2022-09-22T10:06:19.211Z,3.31
2022-09-22T10:07:50.704Z,5.36
2022-09-22T10:09:22.260Z,4.22
2022-09-22T10:10:53.633Z,3.58
2022-09-22T10:12:25.201Z,3.47
2022-09-22T10:13:56.704Z,3.05
2022-09-22T10:15:28.301Z,3.76
2022-09-22T10:16:59.762Z,3.00
2022-09-22T10:18:41.210Z,2.85
2022-09-22T10:20:13.114Z,3.20
2022-09-22T10:21:44.992Z,3.76
2022-09-22T10:23:16.784Z,6.45
2022-09-22T10:24:48.332Z,7.14
2022-09-22T10:26:19.809Z,5.08
2022-09-22T10:27:51.400Z,2.78
2022-09-22T10:29:22.682Z,1.92
2022-09-22T10:30:54.418Z,2.89
2022-09-22T10:32:25.811Z,1.60
2022-09-22T10:33:57.401Z,2.18
2022-09-22T10:35:28.705Z,2.48
2022-09-22T10:37:00.035Z,2.87
2022-09-22T10:38:31.448Z,3.00
2022-09-22T10:40:02.910Z,3.39
2022-09-22T10:41:34.316Z,2.83
2022-09-22T10:43:05.984Z,2.89
2022-09-22T10:44:40.320Z,1.97
2022-09-22T10:46:13.459Z,2.81
2022-09-22T10:47:49.870Z,2.65
2022-09-22T10:49:26.417Z,1.81
2022-09-22T10:51:02.848Z,3.43
2022-09-22T10:52:39.422Z,3.67
2022-09-22T10:54:11.143Z,3.65
2022-09-22T10:55:48.815Z,2.54
2022-09-22T10:57:25.246Z,3.20
2022-09-22T10:58:57.165Z,3.49
2022-09-22T11:00:28.638Z,2.77
2022-09-22T11:02:00.319Z,2.50
2022-09-22T11:03:31.688Z,2.47
2022-09-22T11:05:03.079Z,3.33
2022-09-22T11:06:34.513Z,2.16
2022-09-22T11:08:06.008Z,1.80
2022-09-22T11:09:37.433Z,2.45
2022-09-22T11:11:08.941Z,4.08
2022-09-22T11:12:40.429Z,2.99
2022-09-22T11:14:11.855Z,2.06
2022-09-22T11:15:43.454Z,2.44
2022-09-22T11:17:15.104Z,2.65
2022-09-22T11:18:46.514Z,3.08
2022-09-22T11:20:18.066Z,2.99
2022-09-22T11:21:49.628Z,1.73
2022-09-22T11:23:22.281Z,1.82
2022-09-22T11:24:53.801Z,2.32
2022-09-22T11:26:25.348Z,1.59
2022-09-22T11:27:56.814Z,2.75
2022-09-22T11:29:28.449Z,3.06
2022-09-22T11:31:00.141Z,2.55
2022-09-22T11:32:31.658Z,2.14
2022-09-22T11:34:03.168Z,1.74
2022-09-22T11:35:34.543Z,1.87
2022-09-22T11:37:05.963Z,2.07
2022-09-22T11:38:37.391Z,1.51
2022-09-22T11:40:08.881Z,1.82
2022-09-22T11:41:40.593Z,2.58
2022-09-22T11:43:12.165Z,1.51
2022-09-22T11:44:43.663Z,1.69
2022-09-22T11:46:15.302Z,1.99
2022-09-22T11:47:47.035Z,2.14
2022-09-22T11:49:18.442Z,2.79
2022-09-22T11:50:50.245Z,2.73
2022-09-22T11:52:21.740Z,2.03
2022-09-22T11:53:53.216Z,2.11
2022-09-22T11:55:24.661Z,2.18
2022-09-22T11:56:57.293Z,2.06
2022-09-22T11:58:28.929Z,4.51
2022-09-22T12:00:00.284Z,3.41
2022-09-22T12:01:31.789Z,2.28
2022-09-22T12:03:03.744Z,2.30
2022-09-22T12:04:35.239Z,2.10
2022-09-22T12:06:06.660Z,2.58
2022-09-22T12:07:38.474Z,1.71
2022-09-22T12:09:09.870Z,1.35
2022-09-22T12:10:41.327Z,2.37
2022-09-22T12:12:12.899Z,2.60
2022-09-22T12:13:44.369Z,2.39
2022-09-22T12:15:15.808Z,1.97
2022-09-22T12:16:47.383Z,1.85
2022-09-22T12:18:18.799Z,1.90
2022-09-22T12:19:50.188Z,2.32
2022-09-22T12:22:09.995Z,2.17
2022-09-22T12:23:41.473Z,2.28
2022-09-22T12:25:20.802Z,1.35
2022-09-22T12:26:57.500Z,2.10
2022-09-22T12:28:29.151Z,3.65
2022-09-22T12:30:00.751Z,2.42
2022-09-22T12:31:32.256Z,1.85
2022-09-22T12:33:03.674Z,2.08
2022-09-22T12:34:35.175Z,1.71
2022-09-22T12:36:06.971Z,2.28
2022-09-22T12:37:38.537Z,2.38
2022-09-22T12:39:10.094Z,2.08
2022-09-22T12:40:41.766Z,1.96
2022-09-22T12:42:13.421Z,1.34
2022-09-22T12:43:45.252Z,1.82
2022-09-22T12:45:16.874Z,1.74
2022-09-22T12:46:48.361Z,2.45
2022-09-22T12:48:19.797Z,1.37
2022-09-22T12:49:51.505Z,1.61
2022-09-22T12:51:23.008Z,3.17
2022-09-22T12:52:54.545Z,2.96
2022-09-22T12:54:25.955Z,1.73
2022-09-22T12:55:57.546Z,1.44
2022-09-22T12:57:28.957Z,1.73
2022-09-22T12:59:00.738Z,5.06
2022-09-22T13:00:33.196Z,6.95
2022-09-22T13:02:04.989Z,3.35
2022-09-22T13:03:36.755Z,1.93
2022-09-22T13:05:08.256Z,2.79
2022-09-22T13:06:39.649Z,3.37
2022-09-22T13:08:11.053Z,6.37
2022-09-22T13:09:42.441Z,15.73
2022-09-22T13:11:13.886Z,6.56
2022-09-22T13:12:45.598Z,2.72
2022-09-22T13:14:18.437Z,2.68
2022-09-22T13:15:50.073Z,1.75
2022-09-22T13:17:21.466Z,1.78
2022-09-22T13:18:53.154Z,2.25
2022-09-22T13:20:29.785Z,1.59
2022-09-22T13:22:01.177Z,2.56
2022-09-22T13:23:32.564Z,1.90
2022-09-22T13:25:03.951Z,2.26
2022-09-22T13:26:36.313Z,2.99
2022-09-22T13:28:07.722Z,2.12
2022-09-22T13:29:39.184Z,2.10
2022-09-22T13:31:10.596Z,1.74
2022-09-22T13:32:42.054Z,1.66
2022-09-22T13:34:13.506Z,2.22
2022-09-22T13:35:44.949Z,3.27
2022-09-22T13:37:16.365Z,2.49
2022-09-22T13:38:47.800Z,2.94
2022-09-22T13:40:19.408Z,1.98
2022-09-22T13:41:51.143Z,1.81
2022-09-22T13:43:22.667Z,1.79
2022-09-22T13:44:54.080Z,2.44
2022-09-22T13:46:25.610Z,1.56
2022-09-22T13:47:57.690Z,2.07
2022-09-22T13:49:29.024Z,1.81
2022-09-22T13:51:00.396Z,1.70
2022-09-22T13:52:31.801Z,1.39
2022-09-22T13:54:03.340Z,1.70
2022-09-22T13:55:34.820Z,1.41
2022-09-22T13:57:06.374Z,2.46
2022-09-22T13:58:37.774Z,1.63
2022-09-22T14:00:09.662Z,1.74
2022-09-22T14:01:41.343Z,1.76
2022-09-22T14:03:13.094Z,2.09
2022-09-22T14:04:44.583Z,1.52
2022-09-22T14:06:15.996Z,2.19
2022-09-22T14:08:07.809Z,2.23
2022-09-22T14:09:42.588Z,2.48
2022-09-22T14:11:13.994Z,3.24
2022-09-22T14:12:45.553Z,1.75
2022-09-22T14:14:17.024Z,3.38
2022-09-22T14:15:48.493Z,1.89
2022-09-22T14:17:19.966Z,1.66
2022-09-22T14:18:51.478Z,2.52
2022-09-22T14:20:22.992Z,3.34
2022-09-22T14:21:54.410Z,2.35
2022-09-22T14:23:25.856Z,1.35
2022-09-22T14:24:57.255Z,1.99
2022-09-22T14:26:28.667Z,3.93
2022-09-22T14:28:00.236Z,3.17
2022-09-22T14:29:31.743Z,1.81
2022-09-22T14:31:03.117Z,1.95
2022-09-22T14:32:34.578Z,2.44
2022-09-22T14:34:06.022Z,3.24
2022-09-22T14:35:37.504Z,2.28
2022-09-22T14:37:08.989Z,1.61
2022-09-22T14:38:45.848Z,2.17
2022-09-22T14:40:18.718Z,2.71
2022-09-22T14:41:50.293Z,2.33
2022-09-22T14:43:21.886Z,1.67
2022-09-22T14:44:53.231Z,2.45
2022-09-22T14:46:24.701Z,1.87
2022-09-22T14:47:56.119Z,3.34
2022-09-22T14:49:27.578Z,3.70
2022-09-22T14:50:59.175Z,2.89
2022-09-22T14:52:30.616Z,2.78
2022-09-22T14:54:03.045Z,2.23
2022-09-22T14:55:34.644Z,3.05
2022-09-22T14:57:05.992Z,2.56
2022-09-22T14:58:40.469Z,1.83
2022-09-22T15:00:12.283Z,2.05
2022-09-22T15:01:43.740Z,3.45
2022-09-22T15:03:15.309Z,2.78
2022-09-22T15:04:47.037Z,2.95
2022-09-22T15:06:18.464Z,2.77
2022-09-22T15:07:49.697Z,1.51
2022-09-22T15:09:21.145Z,1.71
2022-09-22T15:10:52.511Z,2.54
2022-09-22T15:12:23.880Z,2.68
2022-09-22T15:13:55.329Z,2.44
2022-09-22T15:15:26.828Z,2.39
2022-09-22T15:17:03.325Z,3.06
2022-09-22T15:18:34.752Z,1.96
2022-09-22T15:20:06.283Z,2.86
2022-09-22T15:21:38.012Z,2.07
2022-09-22T15:23:09.435Z,2.01
2022-09-22T15:24:40.851Z,1.80
2022-09-22T15:26:12.204Z,1.42
2022-09-22T15:27:43.594Z,1.96
2022-09-22T15:29:14.926Z,1.93
2022-09-22T15:30:46.502Z,4.39
2022-09-22T15:32:17.835Z,2.37
2022-09-22T15:33:49.221Z,4.93
2022-09-22T15:35:20.608Z,5.16
2022-09-22T15:36:52.053Z,12.26
2022-09-22T15:38:23.470Z,10.22
2022-09-22T15:39:55.179Z,4.84
2022-09-22T15:41:26.595Z,4.78
2022-09-22T15:43:12.116Z,1.96
2022-09-22T15:44:44.386Z,2.12
2022-09-22T15:46:15.869Z,2.59
2022-09-22T15:47:47.375Z,3.01
2022-09-22T15:49:18.812Z,2.46
2022-09-22T15:50:50.270Z,2.54
2022-09-22T15:52:21.838Z,2.43
2022-09-22T15:53:53.482Z,1.95
2022-09-22T15:55:24.892Z,2.77
2022-09-22T15:56:56.433Z,2.56
2022-09-22T15:58:27.824Z,1.47
2022-09-22T16:00:00.518Z,1.34
2022-09-22T16:01:31.993Z,1.89
2022-09-22T16:03:03.376Z,1.60
2022-09-22T16:04:34.869Z,2.42
2022-09-22T16:06:06.350Z,2.53
2022-09-22T16:07:38.843Z,3.18
2022-09-22T16:09:10.289Z,3.82
2022-09-22T16:10:41.780Z,2.93
2022-09-22T16:12:14.474Z,4.01
2022-09-22T16:13:45.936Z,1.96
2022-09-22T16:15:17.294Z,2.04
2022-09-22T16:16:48.740Z,3.44
2022-09-22T16:18:20.149Z,2.50
2022-09-22T16:19:51.530Z,1.94
2022-09-22T16:21:22.949Z,1.61
2022-09-22T16:22:54.520Z,2.05
2022-09-22T16:24:26.040Z,2.69
2022-09-22T16:25:57.508Z,2.23
2022-09-22T16:27:29.252Z,2.83
2022-09-22T16:29:00.673Z,2.70
2022-09-22T16:30:32.302Z,2.44
2022-09-22T16:32:03.668Z,2.69
2022-09-22T16:33:35.130Z,2.49
2022-09-22T16:35:06.649Z,2.29
2022-09-22T16:36:38.229Z,2.53
2022-09-22T16:38:09.756Z,2.19
2022-09-22T16:39:41.327Z,5.95
2022-09-22T16:41:12.881Z,3.10
2022-09-22T16:42:44.277Z,2.25
2022-09-22T16:44:15.626Z,2.90
2022-09-22T16:45:47.187Z,4.38
2022-09-22T16:47:18.521Z,3.14
2022-09-22T16:48:49.893Z,2.32
2022-09-22T16:50:21.280Z,2.35
2022-09-22T16:51:52.779Z,2.28
2022-09-22T16:53:24.125Z,3.68
2022-09-22T16:54:55.503Z,3.96
2022-09-22T16:56:26.869Z,17.88
2022-09-22T16:58:04.175Z,32.77
2022-09-22T16:59:35.589Z,6.78
2022-09-22T17:01:07.074Z,3.39
2022-09-22T17:02:38.461Z,3.82
2022-09-22T17:04:09.797Z,3.19
2022-09-22T17:05:41.174Z,3.93
2022-09-22T17:07:19.430Z,3.80
2022-09-22T17:08:51.201Z,3.16
2022-09-22T17:10:22.819Z,3.53
2022-09-22T17:11:54.431Z,2.69
2022-09-22T17:13:25.828Z,2.76
2022-09-22T17:14:57.464Z,3.58
2022-09-22T17:16:29.444Z,4.69
2022-09-22T17:18:00.918Z,2.89
2022-09-22T17:19:32.606Z,3.47
2022-09-22T17:21:04.561Z,3.37
2022-09-22T17:22:41.137Z,2.90
2022-09-22T17:24:13.387Z,2.55
2022-09-22T17:25:44.824Z,2.09
2022-09-22T17:27:16.263Z,3.22
2022-09-22T17:28:53.253Z,4.13
2022-09-22T17:30:24.731Z,4.00
2022-09-22T17:32:01.995Z,2.93
2022-09-22T17:33:39.213Z,2.87
2022-09-22T17:35:10.920Z,2.93
2022-09-22T17:36:42.848Z,2.91
2022-09-22T17:38:19.627Z,3.98
2022-09-22T17:39:51.443Z,3.57
2022-09-22T17:41:22.920Z,3.88
2022-09-22T17:42:54.541Z,2.97
2022-09-22T17:44:30.991Z,3.93
2022-09-22T17:46:02.773Z,5.51
2022-09-22T17:47:34.827Z,3.24
2022-09-22T17:49:06.525Z,4.46
2022-09-22T17:50:37.856Z,3.95
2022-09-22T17:52:09.393Z,3.49
2022-09-22T17:53:57.569Z,5.24
2022-09-22T17:57:31.242Z,3.67
2022-09-22T17:59:07.854Z,3.98
2022-09-22T18:00:50.428Z,2.76
2022-09-22T18:02:21.875Z,4.37
2022-09-22T18:04:15.669Z,5.39
2022-09-22T18:05:47.016Z,4.76
2022-09-22T18:07:43.774Z,4.61
2022-09-22T18:09:20.103Z,3.94
2022-09-22T18:10:51.886Z,4.65
2022-09-22T18:12:28.463Z,5.18
2022-09-22T18:13:59.918Z,3.73
2022-09-22T18:15:32.062Z,5.14
2022-09-22T18:17:03.894Z,4.76
2022-09-22T18:18:35.409Z,5.78
2022-09-22T18:20:06.723Z,4.63
2022-09-22T18:21:38.351Z,5.42
2022-09-22T18:23:19.749Z,6.80
2022-09-22T18:24:51.068Z,5.29
2022-09-22T18:26:22.532Z,5.62
2022-09-22T18:27:54.051Z,7.83
2022-09-22T18:29:25.344Z,7.17
2022-09-22T18:30:56.717Z,5.61
2022-09-22T18:32:40.294Z,25.08
2022-09-22T18:34:16.807Z,13.53
2022-09-22T18:36:03.344Z,24.44
2022-09-22T18:38:02.404Z,9.61
2022-09-22T18:39:33.729Z,5.85
2022-09-22T18:41:27.230Z,5.62
2022-09-22T18:45:11.625Z,5.30
2022-09-22T18:47:09.082Z,5.21
2022-09-22T18:48:40.512Z,4.33
2022-09-22T18:50:35.530Z,6.24
2022-09-22T18:52:06.992Z,7.00
2022-09-22T18:53:43.782Z,6.60
2022-09-22T18:55:20.379Z,5.88
2022-09-22T18:56:52.087Z,6.40
2022-09-22T18:58:23.680Z,5.57
2022-09-22T18:59:55.364Z,6.59
2022-09-22T19:01:26.846Z,7.23
2022-09-22T19:03:04.589Z,6.40
2022-09-22T19:04:35.936Z,6.97
2022-09-22T19:06:12.922Z,5.92
2022-09-22T19:07:45.002Z,8.82
2022-09-22T19:09:16.415Z,8.05
2022-09-22T19:10:53.391Z,7.47
2022-09-22T19:12:30.241Z,7.09
2022-09-22T19:14:06.717Z,9.84
2022-09-22T19:15:38.264Z,6.92
2022-09-22T19:17:10.001Z,5.85
2022-09-22T19:18:41.493Z,5.73
2022-09-22T19:20:12.857Z,5.56
2022-09-22T19:21:44.198Z,5.62
2022-09-22T19:23:16.328Z,5.36
2022-09-22T19:24:47.720Z,5.27
2022-09-22T19:26:33.231Z,5.71
2022-09-22T19:28:05.144Z,5.72
2022-09-22T19:29:47.954Z,8.14
2022-09-22T19:31:19.294Z,8.71
2022-09-22T19:32:51.051Z,6.83
2022-09-22T19:34:22.674Z,7.60
2022-09-22T19:35:54.078Z,7.00
2022-09-22T19:37:25.613Z,6.92
2022-09-22T19:39:07.122Z,6.87
2022-09-22T19:40:43.751Z,6.29
2022-09-22T19:42:15.474Z,7.08
2022-09-22T19:43:46.856Z,5.98
2022-09-22T19:45:23.206Z,5.67
2022-09-22T19:46:54.705Z,5.68
2022-09-22T19:48:26.055Z,10.56
2022-09-22T19:50:02.442Z,13.62
2022-09-22T19:51:43.852Z,13.89
2022-09-22T19:53:15.314Z,12.33
2022-09-22T19:54:46.672Z,9.37
2022-09-22T19:56:28.476Z,10.14
2022-09-22T19:57:59.846Z,11.93
2022-09-22T19:59:38.535Z,11.55
2022-09-22T20:01:26.290Z,8.49
2022-09-22T20:03:07.832Z,8.40
2022-09-22T20:04:44.332Z,5.74
2022-09-22T20:06:15.860Z,7.38
2022-09-22T20:07:47.370Z,6.26
2022-09-22T20:09:18.891Z,6.36
2022-09-22T20:10:55.376Z,6.65
2022-09-22T20:12:37.506Z,7.17
2022-09-22T20:14:08.885Z,6.08
2022-09-22T20:15:45.490Z,6.16
2022-09-22T20:17:17.327Z,5.94
2022-09-22T20:18:48.613Z,6.73
2022-09-22T20:20:20.044Z,7.96
2022-09-22T20:21:51.494Z,5.92
2022-09-22T20:23:22.816Z,7.03
2022-09-22T20:24:54.361Z,7.76
2022-09-22T20:26:25.850Z,8.32
2022-09-22T20:27:57.433Z,13.30
2022-09-22T20:29:28.853Z,12.17
2022-09-22T20:31:05.537Z,10.16